createdAt,value
2024-05-09T00:01:17.052Z,11.50
2024-05-09T00:03:47.366Z,11.54
2024-05-09T00:06:20.317Z,11.54
2024-05-09T00:08:50.762Z,11.38
2024-05-09T00:11:21.254Z,11.33
2024-05-09T00:13:51.628Z,11.47
2024-05-09T00:16:21.921Z,11.42
2024-05-09T00:18:52.290Z,11.54
2024-05-09T00:21:25.345Z,11.41
2024-05-09T00:23:55.680Z,11.37
2024-05-09T00:26:27.103Z,11.25
2024-05-09T00:28:57.514Z,11.16
2024-05-09T00:31:28.112Z,11.19
2024-05-09T00:33:58.623Z,11.08
2024-05-09T00:36:31.680Z,11.13
2024-05-09T00:39:01.901Z,11.04
2024-05-09T00:41:32.190Z,10.96
2024-05-09T00:44:03.098Z,10.87
2024-05-09T00:46:33.434Z,11.04
2024-05-09T00:49:05.521Z,10.94
2024-05-09T00:51:38.729Z,10.87
2024-05-09T00:54:09.776Z,10.91
2024-05-09T00:56:40.168Z,10.85
2024-05-09T00:59:10.914Z,10.73
2024-05-09T01:01:41.343Z,10.90
2024-05-09T01:04:12.097Z,10.91
2024-05-09T01:06:45.103Z,10.75
2024-05-09T01:09:15.354Z,10.75
2024-05-09T01:11:45.690Z,10.80
2024-05-09T01:14:16.040Z,10.70
2024-05-09T01:16:46.478Z,10.77
2024-05-09T01:19:23.634Z,10.75
2024-05-09T01:21:56.808Z,10.67
2024-05-09T01:24:29.851Z,10.77
2024-05-09T01:27:00.049Z,10.72
2024-05-09T01:29:30.393Z,10.74
2024-05-09T01:32:01.345Z,10.77
2024-05-09T01:34:31.613Z,10.73
2024-05-09T01:37:01.850Z,10.74
2024-05-09T01:39:34.851Z,10.64
2024-05-09T01:42:05.141Z,10.62
2024-05-09T01:44:35.512Z,10.62
2024-05-09T01:47:05.910Z,10.43
2024-05-09T01:49:39.133Z,10.04
2024-05-09T01:52:09.528Z,10.36
2024-05-09T01:54:42.510Z,10.44
2024-05-09T01:57:12.760Z,10.41
2024-05-09T01:59:42.971Z,10.44
2024-05-09T02:02:13.314Z,10.30
2024-05-09T02:04:43.717Z,10.33
2024-05-09T02:07:14.019Z,10.36
2024-05-09T02:09:46.889Z,10.32
2024-05-09T02:12:17.314Z,10.23
2024-05-09T02:14:47.546Z,10.37
2024-05-09T02:17:17.828Z,10.29
2024-05-09T02:19:48.099Z,10.42
2024-05-09T02:22:18.419Z,9.41
2024-05-09T02:24:51.283Z,10.34
2024-05-09T02:27:21.497Z,10.31
2024-05-09T02:29:51.719Z,10.24
2024-05-09T02:32:22.018Z,10.26
2024-05-09T02:34:52.428Z,10.07
2024-05-09T02:37:19.984Z,9.87
2024-05-09T02:39:52.991Z,10.01
2024-05-09T02:42:20.512Z,10.17
2024-05-09T02:44:50.811Z,10.11
2024-05-09T02:47:18.601Z,10.12
2024-05-09T02:49:48.981Z,9.97
2024-05-09T02:52:18.967Z,9.95
2024-05-09T02:54:49.106Z,10.07
2024-05-09T02:57:19.387Z,10.11
2024-05-09T02:59:49.623Z,9.97
2024-05-09T03:02:17.219Z,10.00
2024-05-09T03:04:48.350Z,10.09
2024-05-09T03:07:17.233Z,10.15
2024-05-09T03:09:49.910Z,10.15
2024-05-09T03:12:20.264Z,10.16
2024-05-09T03:14:53.363Z,10.06
2024-05-09T03:17:21.079Z,10.03
2024-05-09T03:19:51.508Z,10.00
2024-05-09T03:22:19.066Z,9.92
2024-05-09T03:24:49.340Z,9.91
2024-05-09T03:27:16.894Z,9.97
2024-05-09T03:29:49.835Z,9.83
2024-05-09T03:32:17.411Z,9.85
2024-05-09T03:34:47.763Z,9.83
2024-05-09T03:37:17.998Z,9.86
2024-05-09T03:39:48.218Z,9.98
2024-05-09T03:42:18.416Z,10.02
2024-05-09T03:44:52.774Z,9.95
2024-05-09T03:47:20.472Z,9.75
2024-05-09T03:49:50.696Z,9.88
2024-05-09T03:52:18.452Z,9.75
2024-05-09T03:54:49.541Z,9.96
2024-05-09T03:57:17.089Z,9.91
2024-05-09T03:59:47.321Z,9.93
2024-05-09T04:02:17.591Z,9.95
2024-05-09T04:04:47.993Z,9.95
2024-05-09T04:07:15.500Z,9.99
2024-05-09T04:09:45.754Z,10.03
2024-05-09T04:12:13.360Z,10.11
2024-05-09T04:14:43.626Z,10.11
2024-05-09T04:17:11.167Z,10.21
2024-05-09T04:19:44.161Z,10.19
2024-05-09T04:22:11.841Z,10.20
2024-05-09T04:24:42.062Z,10.23
2024-05-09T04:27:09.683Z,10.27
2024-05-09T04:29:40.292Z,10.42
2024-05-09T04:32:08.800Z,10.55
2024-05-09T04:34:39.740Z,10.46
2024-05-09T04:37:10.888Z,10.72
2024-05-09T04:39:41.155Z,10.68
2024-05-09T04:42:08.676Z,10.92
2024-05-09T04:44:38.942Z,10.95
2024-05-09T04:47:06.511Z,10.98
2024-05-09T04:49:36.799Z,11.01
2024-05-09T04:52:04.629Z,10.93
2024-05-09T04:54:37.528Z,11.07
2024-05-09T04:57:05.323Z,11.15
2024-05-09T04:59:36.614Z,11.24
2024-05-09T05:02:04.596Z,11.23
2024-05-09T05:04:34.971Z,11.42
2024-05-09T05:07:03.026Z,11.48
2024-05-09T05:09:33.579Z,11.68
2024-05-09T05:12:24.015Z,11.72
2024-05-09T05:14:54.597Z,11.79
2024-05-09T05:17:24.974Z,11.85
2024-05-09T05:19:52.846Z,11.96
2024-05-09T05:22:23.274Z,11.91
2024-05-09T05:24:50.898Z,12.06
2024-05-09T05:27:23.922Z,12.17
2024-05-09T05:29:51.533Z,12.38
2024-05-09T05:32:21.950Z,12.47
2024-05-09T05:34:49.699Z,12.61
2024-05-09T05:37:19.978Z,12.83
2024-05-09T05:39:47.555Z,13.10
2024-05-09T05:42:17.943Z,13.10
2024-05-09T05:44:48.144Z,13.37
2024-05-09T05:47:18.418Z,13.47
2024-05-09T05:49:46.196Z,13.52
2024-05-09T05:52:16.382Z,13.57
2024-05-09T05:54:43.958Z,13.63
2024-05-09T05:57:15.463Z,13.80
2024-05-09T05:59:43.150Z,13.79
2024-05-09T06:02:16.621Z,13.90
2024-05-09T06:04:44.354Z,13.59
2024-05-09T06:07:14.769Z,14.08
2024-05-09T06:09:42.275Z,14.17
2024-05-09T06:12:12.555Z,14.17
2024-05-09T06:14:40.633Z,14.24
2024-05-09T06:17:10.952Z,14.34
2024-05-09T06:19:41.380Z,13.92
2024-05-09T06:22:12.622Z,14.59
2024-05-09T06:24:40.175Z,14.51
2024-05-09T06:27:10.389Z,14.71
2024-05-09T06:29:38.844Z,14.67
2024-05-09T06:32:09.533Z,14.72
2024-05-09T06:34:37.213Z,14.78
2024-05-09T06:37:10.221Z,14.88
2024-05-09T06:39:37.758Z,14.95
2024-05-09T06:42:08.149Z,14.95
2024-05-09T06:44:35.717Z,15.11
2024-05-09T06:47:06.054Z,15.22
2024-05-09T06:49:33.862Z,15.31
2024-05-09T06:52:04.121Z,15.39
2024-05-09T06:54:34.346Z,15.41
2024-05-09T06:57:04.527Z,15.49
2024-05-09T06:59:32.157Z,15.55
2024-05-09T07:02:02.520Z,15.74
2024-05-09T07:04:30.167Z,15.84
2024-05-09T07:07:00.711Z,15.84
2024-05-09T07:09:28.279Z,15.87
2024-05-09T07:12:01.444Z,16.03
2024-05-09T07:14:29.348Z,16.07
2024-05-09T07:16:59.839Z,16.17
2024-05-09T07:19:27.745Z,16.16
2024-05-09T07:22:00.025Z,16.26
2024-05-09T07:24:27.639Z,16.49
2024-05-09T07:27:00.656Z,16.54
2024-05-09T07:29:28.670Z,16.54
2024-05-09T07:31:59.043Z,16.58
2024-05-09T07:34:26.763Z,16.65
2024-05-09T07:36:57.086Z,16.77
2024-05-09T07:39:24.852Z,16.60
2024-05-09T07:41:55.098Z,16.91
2024-05-09T07:44:25.322Z,16.92
2024-05-09T07:48:13.987Z,16.88
2024-05-09T07:51:32.214Z,16.95
2024-05-09T07:53:33.099Z,16.96
2024-05-09T07:55:21.382Z,16.95
2024-05-09T07:57:51.832Z,17.02
2024-05-09T08:00:29.648Z,17.17
2024-05-09T08:03:01.909Z,17.36
2024-05-09T08:05:29.966Z,17.41
2024-05-09T08:08:00.363Z,17.47
2024-05-09T08:10:29.203Z,17.65
2024-05-09T08:12:59.804Z,17.71
2024-05-09T08:15:30.290Z,17.89
2024-05-09T08:18:01.009Z,17.92
2024-05-09T08:20:33.489Z,18.13
2024-05-09T08:23:05.455Z,18.22
2024-05-09T08:25:33.459Z,18.29
2024-05-09T08:28:03.885Z,18.34
2024-05-09T08:30:37.325Z,18.25
2024-05-09T08:33:09.312Z,18.18
2024-05-09T08:35:37.196Z,18.20
2024-05-09T08:38:08.553Z,18.19
2024-05-09T08:40:37.967Z,18.15
2024-05-09T08:43:12.434Z,18.26
2024-05-09T08:45:47.348Z,18.36
2024-05-09T08:48:19.649Z,18.50
2024-05-09T08:50:50.798Z,18.50
2024-05-09T08:53:21.800Z,18.72
2024-05-09T08:55:51.557Z,18.79
2024-05-09T08:58:22.078Z,18.66
2024-05-09T09:00:53.143Z,18.71
2024-05-09T09:03:28.486Z,18.82
2024-05-09T09:05:59.359Z,18.96
2024-05-09T09:08:29.722Z,19.01
2024-05-09T09:10:59.154Z,18.97
2024-05-09T09:13:29.868Z,19.04
2024-05-09T09:16:01.523Z,19.17
2024-05-09T09:18:33.302Z,19.14
2024-05-09T09:21:01.056Z,19.14
2024-05-09T09:23:31.461Z,19.40
2024-05-09T09:25:59.916Z,19.42
2024-05-09T09:28:30.315Z,19.46
2024-05-09T09:31:05.180Z,19.46
2024-05-09T09:33:36.483Z,19.61
2024-05-09T09:36:06.959Z,19.70
2024-05-09T09:38:40.423Z,19.76
2024-05-09T09:41:08.979Z,19.94
2024-05-09T09:43:40.953Z,20.02
2024-05-09T09:46:13.172Z,20.08
2024-05-09T09:48:44.619Z,20.13
2024-05-09T09:51:12.377Z,20.14
2024-05-09T09:53:43.182Z,20.11
2024-05-09T09:56:11.491Z,20.17
2024-05-09T09:58:43.145Z,20.22
2024-05-09T10:01:13.501Z,20.12
2024-05-09T10:03:45.692Z,20.00
2024-05-09T10:06:14.449Z,19.75
2024-05-09T10:08:45.424Z,20.05
2024-05-09T10:11:12.975Z,20.15
2024-05-09T10:13:44.751Z,20.24
2024-05-09T10:16:21.479Z,20.22
2024-05-09T10:18:52.111Z,20.34
2024-05-09T10:21:20.590Z,20.41
2024-05-09T10:24:03.202Z,20.35
2024-05-09T10:26:32.251Z,20.27
2024-05-09T10:29:03.542Z,20.36
2024-05-09T10:31:33.975Z,20.37
2024-05-09T10:34:05.571Z,20.59
2024-05-09T10:36:33.266Z,20.42
2024-05-09T10:39:03.434Z,20.96
2024-05-09T10:41:30.908Z,21.14
2024-05-09T10:44:02.265Z,21.08
2024-05-09T10:46:30.216Z,21.10
2024-05-09T10:49:07.058Z,21.09
2024-05-09T10:51:35.611Z,20.93
2024-05-09T10:54:05.925Z,20.99
2024-05-09T10:56:33.470Z,20.69
2024-05-09T10:59:06.880Z,20.42
2024-05-09T11:01:34.609Z,20.47
2024-05-09T11:04:08.435Z,20.41
2024-05-09T11:06:38.491Z,20.30
2024-05-09T11:09:09.054Z,20.27
2024-05-09T11:11:36.762Z,20.21
2024-05-09T11:14:15.584Z,20.68
2024-05-09T11:16:43.292Z,20.67
2024-05-09T11:19:19.895Z,20.16
2024-05-09T11:21:51.888Z,20.43
2024-05-09T11:24:22.254Z,20.55
2024-05-09T11:26:49.932Z,20.81
2024-05-09T11:29:20.132Z,20.98
2024-05-09T11:31:47.855Z,21.21
2024-05-09T11:34:21.288Z,21.59
2024-05-09T11:36:48.915Z,21.91
2024-05-09T11:39:19.163Z,22.07
2024-05-09T11:41:46.691Z,22.20
2024-05-09T11:44:16.960Z,22.26
2024-05-09T11:46:44.501Z,22.32
2024-05-09T11:49:14.785Z,22.36
2024-05-09T11:51:45.075Z,22.34
2024-05-09T11:54:15.397Z,22.48
2024-05-09T11:56:42.935Z,22.68
2024-05-09T11:59:13.225Z,22.92
2024-05-09T12:01:41.783Z,23.19
2024-05-09T12:04:12.611Z,23.43
2024-05-09T12:06:40.544Z,23.54
2024-05-09T12:09:13.529Z,23.36
2024-05-09T12:11:41.060Z,23.57
2024-05-09T12:14:11.312Z,23.50
2024-05-09T12:16:38.934Z,23.59
2024-05-09T12:19:09.532Z,23.88
2024-05-09T12:21:37.259Z,23.78
2024-05-09T12:24:07.668Z,23.54
2024-05-09T12:26:38.065Z,23.38
2024-05-09T12:29:08.344Z,23.34
2024-05-09T12:31:35.888Z,23.18
2024-05-09T12:34:06.269Z,23.21
2024-05-09T12:36:33.981Z,23.67
2024-05-09T12:39:06.464Z,24.20
2024-05-09T12:41:36.692Z,24.51
2024-05-09T12:44:06.927Z,24.54
2024-05-09T12:46:34.580Z,24.85
2024-05-09T12:49:05.058Z,24.99
2024-05-09T12:51:32.818Z,24.99
2024-05-09T12:54:03.267Z,24.95
2024-05-09T12:56:31.226Z,24.78
2024-05-09T12:59:04.191Z,24.51
2024-05-09T13:01:31.873Z,24.23
2024-05-09T13:04:02.410Z,24.10
2024-05-09T13:06:30.281Z,23.80
2024-05-09T13:09:00.876Z,23.67
2024-05-09T13:11:30.120Z,23.43
2024-05-09T13:14:00.587Z,23.71
2024-05-09T13:16:33.130Z,24.36
2024-05-09T13:19:03.791Z,24.53
2024-05-09T13:21:31.433Z,24.62
2024-05-09T13:24:01.737Z,25.04
2024-05-09T13:26:29.325Z,25.19
2024-05-09T13:28:59.571Z,25.06
2024-05-09T13:31:29.930Z,25.29
2024-05-09T13:34:00.292Z,25.03
2024-05-09T13:36:27.906Z,24.76
2024-05-09T13:38:59.467Z,24.54
2024-05-09T13:41:27.105Z,24.13
2024-05-09T13:43:57.252Z,24.12
2024-05-09T13:46:25.039Z,24.02
2024-05-09T13:48:58.131Z,23.89
2024-05-09T13:51:26.012Z,24.58
2024-05-09T13:53:56.979Z,25.08
2024-05-09T13:56:24.497Z,25.39
2024-05-09T13:58:55.164Z,25.39
2024-05-09T14:01:22.734Z,26.39
2024-05-09T14:03:53.159Z,26.88
2024-05-09T14:06:23.488Z,27.29
2024-05-09T14:08:53.982Z,27.11
2024-05-09T14:11:22.145Z,26.99
2024-05-09T14:13:52.446Z,26.48
2024-05-09T14:16:20.093Z,27.14
2024-05-09T14:18:50.478Z,27.42
2024-05-09T14:21:18.022Z,27.32
2024-05-09T14:23:51.049Z,27.04
2024-05-09T14:26:18.665Z,27.28
2024-05-09T14:28:48.856Z,27.57
2024-05-09T14:31:16.484Z,27.18
2024-05-09T14:33:47.023Z,26.69
2024-05-09T14:36:14.647Z,26.41
2024-05-09T14:38:45.040Z,26.16
2024-05-09T14:41:15.335Z,25.82
2024-05-09T14:43:46.017Z,26.40
2024-05-09T14:46:13.645Z,26.92
2024-05-09T14:48:44.560Z,27.57
2024-05-09T14:51:12.199Z,27.40
2024-05-09T14:53:42.420Z,27.25
2024-05-09T14:56:10.467Z,27.66
2024-05-09T14:58:43.403Z,27.73
2024-05-09T15:01:11.005Z,28.12
2024-05-09T15:03:41.330Z,28.59
2024-05-09T15:06:10.286Z,29.11
2024-05-09T15:08:42.136Z,29.41
2024-05-09T15:11:09.713Z,29.77
2024-05-09T15:13:42.749Z,30.06
2024-05-09T15:16:10.302Z,30.33
2024-05-09T15:18:43.807Z,30.54
2024-05-09T15:21:11.687Z,30.60
2024-05-09T15:23:41.896Z,30.98
2024-05-09T15:26:09.535Z,30.91
2024-05-09T15:28:43.167Z,31.02
2024-05-09T15:31:10.829Z,31.19
2024-05-09T15:33:42.758Z,31.44
2024-05-09T15:36:10.763Z,31.89
2024-05-09T15:38:41.386Z,32.79
2024-05-09T15:41:08.942Z,33.88
2024-05-09T15:43:39.247Z,34.76
2024-05-09T15:46:09.757Z,35.54
2024-05-09T15:48:42.674Z,36.20
2024-05-09T15:51:11.992Z,36.03
2024-05-09T15:53:42.322Z,35.88
2024-05-09T15:56:11.118Z,35.30
2024-05-09T15:58:41.437Z,35.84
2024-05-09T16:01:12.864Z,35.57
2024-05-09T16:03:43.385Z,34.84
2024-05-09T16:06:11.197Z,34.17
2024-05-09T16:08:41.701Z,33.10
2024-05-09T16:11:09.324Z,32.93
2024-05-09T16:13:39.597Z,33.74
2024-05-09T16:16:07.590Z,34.94
2024-05-09T16:18:40.961Z,35.73
2024-05-09T16:21:08.668Z,36.74
2024-05-09T16:23:40.642Z,37.37
2024-05-09T16:26:08.274Z,36.98
2024-05-09T16:28:39.022Z,37.91
2024-05-09T16:31:06.733Z,37.65
2024-05-09T16:33:40.641Z,37.63
2024-05-09T16:36:08.686Z,37.11
2024-05-09T16:38:40.180Z,36.51
2024-05-09T16:41:07.719Z,36.55
2024-05-09T16:43:38.060Z,36.40
2024-05-09T16:46:05.920Z,35.28
2024-05-09T16:48:37.395Z,34.98
2024-05-09T16:51:07.667Z,34.94
2024-05-09T16:53:38.030Z,34.57
2024-05-09T16:56:07.224Z,32.98
2024-05-09T16:58:37.758Z,31.26
2024-05-09T17:01:05.774Z,29.40
2024-05-09T17:03:36.250Z,27.89
2024-05-09T17:06:06.831Z,26.66
2024-05-09T17:08:38.765Z,25.79
2024-05-09T17:11:06.474Z,25.03
2024-05-09T17:13:39.600Z,24.47
2024-05-09T17:16:09.094Z,23.91
2024-05-09T17:18:40.069Z,23.50
2024-05-09T17:21:10.643Z,23.10
2024-05-09T17:23:41.044Z,22.74
2024-05-09T17:26:08.586Z,22.60
2024-05-09T17:28:44.518Z,22.22
2024-05-09T17:31:32.051Z,22.13
2024-05-09T17:34:05.981Z,21.91
2024-05-09T17:36:37.811Z,21.64
2024-05-09T17:39:09.448Z,21.34
2024-05-09T17:41:37.606Z,21.01
2024-05-09T17:44:10.656Z,20.60
2024-05-09T17:46:38.557Z,20.45
2024-05-09T17:49:09.832Z,20.29
2024-05-09T17:51:51.607Z,20.14
2024-05-09T17:54:21.919Z,19.99
2024-05-09T17:56:51.184Z,19.82
2024-05-09T17:59:21.526Z,19.51
2024-05-09T18:01:49.463Z,19.44
2024-05-09T18:04:20.860Z,19.04
2024-05-09T18:06:51.269Z,19.04
2024-05-09T18:09:21.611Z,19.03
2024-05-09T18:11:49.420Z,18.86
2024-05-09T18:14:19.747Z,18.64
2024-05-09T18:16:47.637Z,18.54
2024-05-09T18:19:18.010Z,18.31
2024-05-09T18:21:45.595Z,18.15
2024-05-09T18:24:22.235Z,18.18
2024-05-09T18:26:50.067Z,18.08
2024-05-09T18:29:22.268Z,17.97
2024-05-09T18:31:50.116Z,17.85
2024-05-09T18:34:20.703Z,17.69
2024-05-09T18:36:48.572Z,17.63
2024-05-09T18:39:21.672Z,17.38
2024-05-09T18:41:49.316Z,17.28
2024-05-09T18:44:19.754Z,17.20
2024-05-09T18:46:47.545Z,17.22
2024-05-09T18:49:18.326Z,17.09
2024-05-09T18:51:46.382Z,17.00
2024-05-09T18:54:16.681Z,16.80
2024-05-09T18:56:47.107Z,16.66
2024-05-09T18:59:17.456Z,16.66
2024-05-09T19:01:45.079Z,16.60
2024-05-09T19:04:18.553Z,16.45
2024-05-09T19:06:46.543Z,16.55
2024-05-09T19:09:16.960Z,16.43
2024-05-09T19:11:47.188Z,16.39
2024-05-09T19:14:17.404Z,16.34
2024-05-09T19:16:45.129Z,16.28
2024-05-09T19:19:15.460Z,16.21
2024-05-09T19:21:43.233Z,16.26
2024-05-09T19:24:13.625Z,16.22
2024-05-09T19:26:41.381Z,16.31
2024-05-09T19:29:14.414Z,16.19
2024-05-09T19:31:42.000Z,15.53
2024-05-09T19:34:12.390Z,15.95
2024-05-09T19:36:40.091Z,15.59
2024-05-09T19:39:10.418Z,15.60
2024-05-09T19:41:37.990Z,15.74
2024-05-09T19:44:08.671Z,15.78
2024-05-09T19:46:39.167Z,15.23
2024-05-09T19:49:09.643Z,15.61
2024-05-09T19:51:37.355Z,15.48
2024-05-09T19:54:07.802Z,15.55
2024-05-09T19:56:35.536Z,15.54
2024-05-09T19:59:05.860Z,15.46
2024-05-09T20:01:33.497Z,15.38
2024-05-09T20:04:07.506Z,15.29
2024-05-09T20:06:37.379Z,15.13
2024-05-09T20:09:07.709Z,15.05
2024-05-09T20:11:35.247Z,15.01
2024-05-09T20:14:05.552Z,15.02
2024-05-09T20:16:33.267Z,15.12
2024-05-09T20:19:06.462Z,14.98
2024-05-09T20:21:34.200Z,14.94
2024-05-09T20:24:04.501Z,14.86
2024-05-09T20:26:32.075Z,14.70
2024-05-09T20:29:02.276Z,14.70
2024-05-09T20:31:29.852Z,14.56
2024-05-09T20:34:00.225Z,14.65
2024-05-09T20:36:30.559Z,14.52
2024-05-09T20:39:00.851Z,14.56
2024-05-09T20:41:28.400Z,14.47
2024-05-09T20:44:01.826Z,14.64
2024-05-09T20:46:29.549Z,14.63
2024-05-09T20:49:00.014Z,14.61
2024-05-09T20:51:30.954Z,14.51
2024-05-09T20:54:01.168Z,13.98
2024-05-09T20:56:29.015Z,14.43
2024-05-09T20:59:00.189Z,14.41
2024-05-09T21:01:27.863Z,14.30
2024-05-09T21:03:58.397Z,14.21
2024-05-09T21:06:26.061Z,14.10
2024-05-09T21:08:59.101Z,14.21
2024-05-09T21:11:26.706Z,14.14
2024-05-09T21:13:57.128Z,13.86
2024-05-09T21:16:24.830Z,14.06
2024-05-09T21:18:55.193Z,14.02
2024-05-09T21:21:22.767Z,14.09
2024-05-09T21:23:53.009Z,14.06
2024-05-09T21:26:24.094Z,14.15
2024-05-09T21:28:54.360Z,14.07
2024-05-09T21:31:22.041Z,14.11
2024-05-09T21:33:52.438Z,14.02
2024-05-09T21:36:20.231Z,13.99
2024-05-09T21:38:50.508Z,14.02
2024-05-09T21:41:18.176Z,13.75
2024-05-09T21:43:51.781Z,13.91
2024-05-09T21:46:19.761Z,13.78
2024-05-09T21:48:50.323Z,13.76
2024-05-09T21:51:18.083Z,13.56
2024-05-09T21:53:49.053Z,13.54
2024-05-09T21:56:16.669Z,13.39
2024-05-09T21:58:46.859Z,13.43
2024-05-09T22:01:17.329Z,13.50
2024-05-09T22:03:47.896Z,12.87
2024-05-09T22:06:15.579Z,13.34
2024-05-09T22:08:45.742Z,13.26
2024-05-09T22:11:13.412Z,13.22
2024-05-09T22:13:43.642Z,13.04
2024-05-09T22:16:11.384Z,13.03
2024-05-09T22:18:44.530Z,12.92
2024-05-09T22:21:12.099Z,12.72
2024-05-09T22:23:42.381Z,12.89
2024-05-09T22:26:09.916Z,12.99
2024-05-09T22:28:40.215Z,13.00
2024-05-09T22:31:09.427Z,13.08
2024-05-09T22:33:40.288Z,13.07
2024-05-09T22:36:11.421Z,13.05
2024-05-09T22:38:41.677Z,13.04
2024-05-09T22:41:10.332Z,12.67
2024-05-09T22:43:40.583Z,13.01
2024-05-09T22:46:08.236Z,12.96
2024-05-09T22:48:38.810Z,12.92
2024-05-09T22:51:06.623Z,12.67
2024-05-09T22:53:39.489Z,12.82
2024-05-09T22:56:07.812Z,12.84
2024-05-09T22:58:38.285Z,12.85
2024-05-09T23:01:06.410Z,12.81
2024-05-09T23:03:36.807Z,12.88
2024-05-09T23:06:06.901Z,12.80
2024-05-09T23:08:39.893Z,12.80
2024-05-09T23:11:07.713Z,12.67
2024-05-09T23:13:38.214Z,12.81
2024-05-09T23:16:06.642Z,12.71
2024-05-09T23:18:36.972Z,12.76
2024-05-09T23:21:05.041Z,12.72
2024-05-09T23:23:35.242Z,12.66
2024-05-09T23:26:05.881Z,12.50
2024-05-09T23:28:36.341Z,12.64
2024-05-09T23:31:05.281Z,12.39
2024-05-09T23:33:35.781Z,11.78
2024-05-09T23:36:03.412Z,12.32
2024-05-09T23:38:33.547Z,12.43
2024-05-09T23:41:01.168Z,12.39
2024-05-09T23:43:36.400Z,12.33
2024-05-09T23:46:03.997Z,12.33
2024-05-09T23:48:34.373Z,12.25
2024-05-09T23:51:01.934Z,12.26
2024-05-09T23:53:32.202Z,12.20
2024-05-09T23:55:59.742Z,12.15
2024-05-09T23:58:30.201Z,12.07
